Time;durP1;ratioP1;P1;durP2;ratioP2;P2;SDS_P1;SDS_P2;PMS_P1;PMS_P2;Temp;Humidity;BMP_temperature;BMP_pressure;BME280_temperature;BME280_humidity;BME280_pressure;Samples;Min_cycle;Max_cycle;Signal;HPM_P1;HPM_P2
2022/01/31 00:09:15;;;;;;;9.27;2.33;;;3.50;99.90;;;;;;6763495;87;20221;-75
2022/01/31 00:19:15;;;;;;;7.72;1.98;;;3.50;99.90;;;;;;6751020;87;21038;-74
2022/01/31 00:29:17;;;;;;;11.12;2.25;;;3.50;99.90;;;;;;6751509;87;20188;-74
2022/01/31 00:39:17;;;;;;;8.15;2.12;;;3.50;99.90;;;;;;6747929;87;20185;-73
2022/01/31 00:59:31;;;;;;;8.98;1.65;;;3.60;99.90;;;;;;6749955;87;20627;-73
2022/01/31 01:09:31;;;;;;;8.82;1.92;;;3.70;99.90;;;;;;6747025;87;20258;-75
2022/01/31 01:19:32;;;;;;;12.05;2.37;;;3.80;99.90;;;;;;6749069;87;20220;-74
2022/01/31 01:29:33;;;;;;;9.85;2.28;;;3.80;99.90;;;;;;6748128;87;20223;-74
2022/01/31 01:39:33;;;;;;;7.53;1.70;;;3.80;99.90;;;;;;6748057;87;20216;-74
2022/01/31 01:49:34;;;;;;;9.75;1.83;;;3.90;99.90;;;;;;6749962;87;20256;-74
2022/01/31 01:59:36;;;;;;;10.25;1.85;;;4.00;99.90;;;;;;6746403;88;20722;-74
2022/01/31 02:09:43;;;;;;;6.20;1.60;;;4.10;99.90;;;;;;6748586;87;20176;-74
2022/01/31 02:19:43;;;;;;;;;;;4.20;99.90;;;;;;6747861;87;20218;-74
2022/01/31 02:29:44;;;;;;;7.80;1.90;;;4.40;99.90;;;;;;6746920;88;20101;-73
2022/01/31 02:39:45;;;;;;;8.85;2.15;;;4.40;99.90;;;;;;6754995;87;20263;-73
2022/01/31 02:49:55;;;;;;;6.82;1.90;;;4.50;99.90;;;;;;6750729;87;20238;-74
2022/01/31 02:59:55;;;;;;;4.80;1.15;;;4.60;99.90;;;;;;6745491;87;20168;-74
2022/01/31 03:09:56;;;;;;;8.80;1.70;;;4.80;99.90;;;;;;6747376;87;20977;-73
2022/01/31 03:19:57;;;;;;;5.22;1.25;;;5.00;99.90;;;;;;6752750;87;20320;-75
2022/01/31 03:29:57;;;;;;;5.18;1.45;;;4.60;99.90;;;;;;6749982;87;20291;-74
2022/01/31 03:39:58;;;;;;;8.60;2.40;;;4.30;99.90;;;;;;6751147;88;20214;-73
2022/01/31 03:49:58;;;;;;;6.90;1.40;;;4.10;99.90;;;;;;6748538;88;20189;-72
2022/01/31 04:00:00;;;;;;;10.55;2.12;;;4.00;99.90;;;;;;6747162;88;20256;-73
2022/01/31 04:10:02;;;;;;;5.18;1.25;;;4.10;99.90;;;;;;6747260;88;20177;-73
2022/01/31 04:20:05;;;;;;;4.87;1.42;;;4.10;99.90;;;;;;6747082;87;20645;-73
2022/01/31 04:30:07;;;;;;;2.45;0.80;;;4.10;99.90;;;;;;6746833;88;20209;-72
2022/01/31 04:40:13;;;;;;;2.62;0.62;;;4.20;99.90;;;;;;6748035;88;20201;-73
2022/01/31 04:50:13;;;;;;;1.63;0.40;;;4.10;99.90;;;;;;6743260;88;20222;-72
2022/01/31 05:00:14;;;;;;;0.62;0.30;;;4.20;99.90;;;;;;6747421;88;20728;-73
2022/01/31 05:10:15;;;;;;;0.75;0.30;;;4.40;99.90;;;;;;6746871;87;20934;-73
2022/01/31 05:20:15;;;;;;;2.95;0.70;;;4.40;99.90;;;;;;6746807;87;20181;-72
2022/01/31 05:30:16;;;;;;;3.75;1.05;;;4.50;99.90;;;;;;6746622;87;20286;-72
2022/01/31 05:40:17;;;;;;;5.05;1.23;;;4.70;99.90;;;;;;6749514;87;20662;-74
2022/01/31 05:50:18;;;;;;;4.05;1.70;;;5.00;99.90;;;;;;6744340;88;20197;-72
2022/01/31 06:00:18;;;;;;;7.28;1.98;;;5.00;99.90;;;;;;6745067;88;20192;-72
2022/01/31 06:10:22;;;;;;;6.82;2.00;;;5.20;99.90;;;;;;6742824;87;20700;-73
2022/01/31 06:20:22;;;;;;;7.87;2.10;;;5.30;99.90;;;;;;6743090;87;20180;-74
2022/01/31 06:30:24;;;;;;;8.52;1.75;;;5.30;99.90;;;;;;6747379;87;20692;-73
2022/01/31 06:40:25;;;;;;;8.23;2.30;;;5.50;99.90;;;;;;6741194;87;20310;-73
2022/01/31 06:50:26;;;;;;;6.87;2.00;;;5.50;99.90;;;;;;6749589;87;20213;-74
2022/01/31 07:00:26;;;;;;;8.27;1.62;;;5.60;99.90;;;;;;6751314;87;20371;-73
2022/01/31 07:10:27;;;;;;;7.72;1.80;;;5.70;99.90;;;;;;6746821;87;20215;-71
2022/01/31 07:20:40;;;;;;;8.50;1.67;;;5.60;99.90;;;;;;6749806;87;20748;-73
2022/01/31 07:30:44;;;;;;;10.43;1.60;;;5.70;99.90;;;;;;6750431;87;20196;-72
2022/01/31 07:40:45;;;;;;;5.47;1.60;;;5.60;99.90;;;;;;6748700;87;20200;-72
2022/01/31 07:50:46;;;;;;;8.82;1.87;;;5.10;99.90;;;;;;6752644;88;20187;-73
2022/01/31 08:00:47;;;;;;;8.32;1.80;;;4.90;99.90;;;;;;6750815;87;20325;-72
2022/01/31 08:10:48;;;;;;;6.90;1.70;;;4.90;99.90;;;;;;6752994;87;20200;-73
2022/01/31 08:20:48;;;;;;;6.93;1.92;;;4.80;99.90;;;;;;6750944;87;20192;-73
2022/01/31 08:30:56;;;;;;;8.90;2.20;;;4.70;99.90;;;;;;6753709;88;20265;-74
2022/01/31 08:40:58;;;;;;;13.73;2.55;;;4.70;99.90;;;;;;6761454;88;20189;-72
2022/01/31 08:50:59;;;;;;;8.50;2.15;;;4.70;99.90;;;;;;6754303;88;20561;-72
2022/01/31 09:01:05;;;;;;;7.40;1.83;;;4.90;99.90;;;;;;6745617;87;20638;-73
2022/01/31 09:11:07;;;;;;;11.27;1.80;;;4.90;99.90;;;;;;6754285;87;20184;-73
2022/01/31 09:21:07;;;;;;;6.22;1.83;;;4.70;99.90;;;;;;6754502;87;20189;-73
2022/01/31 09:31:08;;;;;;;8.38;1.83;;;4.70;99.90;;;;;;6754384;87;20287;-73
2022/01/31 09:41:13;;;;;;;5.12;1.37;;;4.80;99.90;;;;;;6754289;87;20193;-73
2022/01/31 09:51:17;;;;;;;5.68;1.55;;;4.80;99.90;;;;;;6754259;88;20229;-74
2022/01/31 10:01:25;;;;;;;7.87;1.33;;;4.70;99.90;;;;;;6751443;88;20812;-72
2022/01/31 10:11:29;;;;;;;3.80;1.30;;;4.80;99.90;;;;;;6752013;87;20230;-73
2022/01/31 10:21:30;;;;;;;8.45;1.45;;;4.70;99.90;;;;;;6751713;87;20194;-73
2022/01/31 10:31:30;;;;;;;6.20;1.27;;;4.70;99.90;;;;;;6755978;88;20588;-73
2022/01/31 10:52:01;;;;;;;9.23;1.83;;;4.40;99.90;;;;;;6745065;88;20180;-73
2022/01/31 11:02:05;;;;;;;8.65;2.15;;;4.30;99.90;;;;;;6740606;88;20837;-72
2022/01/31 11:12:07;;;;;;;10.23;2.28;;;4.30;99.90;;;;;;6752926;88;20750;-73
2022/01/31 11:22:16;;;;;;;9.63;1.80;;;4.30;99.90;;;;;;6756147;87;20198;-74
2022/01/31 11:32:16;;;;;;;9.43;1.73;;;4.40;99.90;;;;;;6759362;88;20279;-74
2022/01/31 11:42:17;;;;;;;14.98;1.80;;;4.30;99.90;;;;;;6755472;88;20232;-73
2022/01/31 11:52:18;;;;;;;11.48;2.60;;;4.30;99.90;;;;;;6755222;88;20327;-72
2022/01/31 12:02:21;;;;;;;10.32;1.87;;;4.20;99.90;;;;;;6753997;88;20663;-73
2022/01/31 12:12:40;;;;;;;12.35;2.25;;;4.30;99.90;;;;;;6756038;87;20255;-72
2022/01/31 12:22:45;;;;;;;14.27;2.15;;;4.40;99.90;;;;;;6750427;87;20385;-72
2022/01/31 12:32:45;;;;;;;14.52;2.35;;;4.50;99.90;;;;;;6740021;87;20253;-72
2022/01/31 12:42:57;;;;;;;15.93;2.47;;;4.50;99.90;;;;;;6748274;88;20744;-72
2022/01/31 12:53:04;;;;;;;11.27;1.87;;;4.40;99.90;;;;;;6739295;87;20184;-73
2022/01/31 13:03:05;;;;;;;;;;;4.40;99.90;;;;;;6746977;87;20176;-73
2022/01/31 13:13:05;;;;;;;14.18;2.33;;;4.30;99.90;;;;;;6743501;88;20876;-73
2022/01/31 13:23:06;;;;;;;16.30;2.30;;;4.20;99.90;;;;;;6746989;87;20312;-76
2022/01/31 13:33:06;;;;;;;16.70;2.10;;;4.20;99.90;;;;;;6746620;88;20311;-73
2022/01/31 13:43:16;;;;;;;15.77;2.65;;;4.20;99.90;;;;;;6747066;87;20188;-73
2022/01/31 13:53:18;;;;;;;20.80;3.20;;;4.20;99.90;;;;;;6742069;88;21022;-74
2022/01/31 14:03:24;;;;;;;18.37;3.22;;;4.20;99.90;;;;;;6746420;87;20640;-74
2022/01/31 14:13:25;;;;;;;14.70;3.17;;;4.00;99.90;;;;;;6747545;87;20230;-72
2022/01/31 14:23:25;;;;;;;16.23;2.15;;;4.00;99.90;;;;;;6747084;87;20361;-73
2022/01/31 14:33:26;;;;;;;12.07;2.08;;;4.00;99.90;;;;;;6749454;88;20650;-73
2022/01/31 14:47:16;;;;;;;13.07;2.58;;;4.10;99.90;;;;;;6749417;88;20185;-73
2022/01/31 14:53:54;;;;;;;14.80;2.58;;;4.10;99.90;;;;;;6742855;88;20809;-73
2022/01/31 15:03:55;;;;;;;16.00;2.35;;;4.10;99.90;;;;;;6745710;87;20273;-73
2022/01/31 15:13:56;;;;;;;14.10;2.30;;;4.10;99.90;;;;;;6745075;88;20653;-73
2022/01/31 15:23:56;;;;;;;13.32;1.80;;;4.10;99.90;;;;;;6752587;87;20188;-73
2022/01/31 15:33:57;;;;;;;16.23;2.72;;;4.00;99.90;;;;;;6748109;87;20534;-73
2022/01/31 15:43:58;;;;;;;16.92;3.33;;;4.00;99.90;;;;;;6748575;87;20204;-73
2022/01/31 15:53:59;;;;;;;11.73;2.42;;;4.00;99.90;;;;;;6748297;87;20208;-75
2022/01/31 16:04:00;;;;;;;15.45;2.87;;;4.00;99.90;;;;;;6748526;88;20672;-74
2022/01/31 16:14:00;;;;;;;9.95;2.28;;;4.00;99.90;;;;;;6746701;87;20770;-75
2022/01/31 16:24:02;;;;;;;18.73;3.03;;;4.00;99.90;;;;;;6748581;87;20939;-73
2022/01/31 16:34:05;;;;;;;22.50;2.90;;;4.00;99.90;;;;;;6747921;88;20212;-74
2022/01/31 16:44:06;;;;;;;22.92;3.10;;;4.00;99.90;;;;;;6749826;87;20244;-74
2022/01/31 16:54:06;;;;;;;16.45;2.92;;;4.00;99.90;;;;;;6743621;88;20656;-73
2022/01/31 17:04:07;;;;;;;20.23;3.00;;;4.10;99.90;;;;;;6749240;88;20195;-73
2022/01/31 17:14:07;;;;;;;25.07;3.50;;;4.10;99.90;;;;;;6749282;87;21193;-74
2022/01/31 17:24:08;;;;;;;25.60;3.50;;;4.20;99.90;;;;;;6747960;87;20587;-75
2022/01/31 17:34:09;;;;;;;20.55;3.53;;;4.10;99.90;;;;;;6748282;87;20509;-74
2022/01/31 17:44:18;;;;;;;15.53;2.80;;;4.10;99.90;;;;;;6753644;87;20181;-73
2022/01/31 17:54:19;;;;;;;20.35;2.83;;;4.10;99.90;;;;;;6743844;87;20598;-73
2022/01/31 18:04:20;;;;;;;14.15;2.70;;;4.20;99.90;;;;;;6744169;88;20267;-73
2022/01/31 18:14:20;;;;;;;19.83;3.62;;;4.20;99.90;;;;;;6738812;88;20304;-73
2022/01/31 18:24:21;;;;;;;19.80;3.90;;;4.20;99.90;;;;;;6739898;88;20739;-73
2022/01/31 18:34:22;;;;;;;22.60;3.85;;;4.30;99.90;;;;;;6739249;88;20676;-74
2022/01/31 18:44:23;;;;;;;18.10;4.07;;;4.40;99.90;;;;;;6738836;87;20184;-74
2022/01/31 18:54:24;;;;;;;19.83;4.28;;;4.50;99.90;;;;;;6744542;87;20207;-73
2022/01/31 19:04:24;;;;;;;18.35;3.80;;;4.70;99.90;;;;;;6742769;88;20697;-73
2022/01/31 19:24:40;;;;;;;17.80;3.83;;;4.90;99.90;;;;;;6745669;88;20670;-74
2022/01/31 19:34:41;;;;;;;13.95;2.47;;;5.00;99.90;;;;;;6750704;87;20238;-77
2022/01/31 19:44:42;;;;;;;18.92;3.80;;;5.00;99.90;;;;;;6750710;88;20319;-74
2022/01/31 19:54:42;;;;;;;12.57;3.20;;;5.00;99.90;;;;;;6746804;87;20687;-74
2022/01/31 20:04:43;;;;;;;8.82;1.90;;;4.90;99.90;;;;;;6749058;87;20268;-75
2022/01/31 20:14:43;;;;;;;11.68;2.42;;;4.90;99.90;;;;;;6750232;88;20193;-74
2022/01/31 20:24:44;;;;;;;24.00;3.95;;;4.80;99.90;;;;;;6741707;87;20208;-74
2022/01/31 20:34:45;;;;;;;19.67;3.40;;;4.80;99.90;;;;;;6750018;88;20187;-75
2022/01/31 20:44:46;;;;;;;14.77;3.08;;;4.60;99.90;;;;;;6750862;87;20242;-73
2022/01/31 20:54:47;;;;;;;22.02;3.72;;;4.50;99.90;;;;;;6746500;87;20173;-74
2022/01/31 21:04:47;;;;;;;19.90;4.37;;;4.50;99.90;;;;;;6742224;87;20213;-74
2022/01/31 21:14:48;;;;;;;26.42;4.70;;;4.40;99.90;;;;;;6740297;87;20631;-74
2022/01/31 21:24:48;;;;;;;36.50;4.62;;;4.30;99.90;;;;;;6739697;87;20299;-73
2022/01/31 21:34:49;;;;;;;28.85;4.30;;;4.30;99.90;;;;;;6739941;88;20202;-74
2022/01/31 21:44:49;;;;;;;30.17;3.72;;;4.20;99.90;;;;;;6737846;87;20338;-75
2022/01/31 21:54:50;;;;;;;25.55;3.25;;;4.20;99.90;;;;;;6738230;87;20692;-75
2022/01/31 22:04:50;;;;;;;21.12;3.08;;;4.10;99.90;;;;;;6740406;87;20801;-74
2022/01/31 22:14:51;;;;;;;25.70;3.45;;;4.20;99.90;;;;;;6738113;87;20324;-74
2022/01/31 22:24:52;;;;;;;28.60;3.60;;;4.20;99.90;;;;;;6737142;87;20214;-74
2022/01/31 22:34:53;;;;;;;31.48;3.80;;;4.20;99.90;;;;;;6742183;88;20210;-74
2022/01/31 22:44:53;;;;;;;29.58;3.78;;;4.20;99.90;;;;;;6742016;87;20554;-75
2022/01/31 22:54:55;;;;;;;31.92;4.55;;;4.10;99.90;;;;;;6744281;88;20636;-74
2022/01/31 23:04:55;;;;;;;27.80;4.07;;;4.10;99.90;;;;;;6738961;88;20172;-75
2022/01/31 23:14:58;;;;;;;28.98;4.12;;;4.00;99.90;;;;;;6739775;87;20192;-74
2022/01/31 23:56:06;;;;;;;21.67;2.85;;;3.70;99.90;;;;;;6742955;88;20209;-74
